Time;durP1;ratioP1;P1;durP2;ratioP2;P2;SDS_P1;SDS_P2;PMS_P1;PMS_P2;Temp;Humidity;BMP_temperature;BMP_pressure;BME280_temperature;BME280_humidity;BME280_pressure;Samples;Min_cycle;Max_cycle;Signal;HPM_P1;HPM_P2
2022/07/16 00:01:22;;;;;;;;;;;24.10;56.70;;;;;;5022335;28;87151;-43
2022/07/16 00:01:48;;;;;;;;;;;24.10;56.60;;;;;;5022226;28;88216;-43
2022/07/16 00:04:14;;;;;;;;;;;24.00;56.50;;;;;;5021220;28;89025;-44
2022/07/16 00:06:40;;;;;;;;;;;24.00;56.60;;;;;;5025131;28;87057;-44
2022/07/16 00:09:05;;;;;;;;;;;24.00;56.60;;;;;;5021790;28;88068;-43
2022/07/16 00:11:31;;;;;;;;;;;24.00;56.60;;;;;;5021966;28;87085;-44
2022/07/16 00:13:56;;;;;;;;;;;24.00;56.60;;;;;;5022166;28;87289;-44
2022/07/16 00:16:22;;;;;;;;;;;23.90;56.60;;;;;;5021588;28;87358;-44
2022/07/16 00:21:31;;;;;;;;;;;23.90;56.50;;;;;;5022798;28;86619;-44
2022/07/16 00:23:57;;;;;;;;;;;23.90;56.60;;;;;;5021380;28;87944;-44
2022/07/16 00:26:22;;;;;;;;;;;23.90;56.60;;;;;;5021981;28;87143;-44
2022/07/16 00:28:48;;;;;;;;;;;23.90;56.60;;;;;;5024026;28;87939;-44
2022/07/16 00:31:13;;;;;;;;;;;23.90;56.60;;;;;;5022015;28;87401;-44
2022/07/16 00:33:39;;;;;;;;;;;23.80;56.50;;;;;;5021932;28;87364;-44
2022/07/16 00:36:04;;;;;;;;;;;23.80;56.50;;;;;;5021316;28;88458;-44
2022/07/16 00:38:31;;;;;;;;;;;23.80;56.50;;;;;;5021365;28;87071;-44
2022/07/16 00:40:56;;;;;;;;;;;23.80;56.60;;;;;;5021796;28;87244;-44
2022/07/16 00:43:22;;;;;;;;;;;23.80;56.60;;;;;;5021342;28;89329;-44
2022/07/16 00:45:47;;;;;;;;;;;23.80;56.50;;;;;;5021816;28;86409;-44
2022/07/16 00:48:13;;;;;;;;;;;23.70;56.50;;;;;;5021740;28;87294;-45
2022/07/16 00:50:39;;;;;;;;;;;23.70;56.60;;;;;;5024397;28;88187;-45
2022/07/16 00:53:07;;;;;;;;;;;23.70;56.60;;;;;;5021004;28;87924;-45
2022/07/16 00:55:32;;;;;;;;;;;23.70;56.50;;;;;;5022090;28;88077;-43
2022/07/16 00:57:58;;;;;;;;;;;23.60;56.50;;;;;;5025035;28;87157;-43
2022/07/16 01:00:23;;;;;;;;;;;23.70;56.50;;;;;;5025026;28;87354;-44
2022/07/16 01:02:49;;;;;;;;;;;23.70;56.50;;;;;;5024744;28;87994;-43
2022/07/16 01:05:15;;;;;;;;;;;23.60;56.50;;;;;;5024950;28;87146;-44
2022/07/16 01:07:41;;;;;;;;;;;23.60;56.50;;;;;;5024655;28;86930;-44
2022/07/16 01:10:07;;;;;;;;;;;23.60;56.60;;;;;;5025031;28;87212;-43
2022/07/16 01:12:33;;;;;;;;;;;23.60;56.60;;;;;;5027886;28;87063;-44
2022/07/16 01:14:58;;;;;;;;;;;23.60;56.60;;;;;;5024569;28;87942;-46
2022/07/16 01:17:24;;;;;;;;;;;23.50;56.50;;;;;;5024048;28;88142;-43
2022/07/16 01:19:49;;;;;;;;;;;23.50;56.50;;;;;;5024513;28;88405;-43
2022/07/16 01:22:22;;;;;;;;;;;23.50;56.60;;;;;;5024138;28;87900;-43
2022/07/16 01:24:48;;;;;;;;;;;23.50;56.60;;;;;;5024675;28;87068;-44
2022/07/16 01:27:14;;;;;;;;;;;23.50;56.60;;;;;;5024513;28;87340;-44
2022/07/16 01:29:40;;;;;;;;;;;23.50;57.20;;;;;;5024241;28;88009;-44
2022/07/16 01:32:05;;;;;;;;;;;23.40;56.50;;;;;;5024758;28;87129;-45
2022/07/16 01:34:31;;;;;;;;;;;23.40;56.60;;;;;;5027602;28;87554;-43
2022/07/16 01:36:58;;;;;;;;;;;23.40;56.60;;;;;;5024357;28;87092;-44
2022/07/16 01:39:24;;;;;;;;;;;23.40;56.60;;;;;;5024260;28;87539;-44
2022/07/16 01:41:54;;;;;;;;;;;23.30;56.60;;;;;;5023040;28;89409;-44
2022/07/16 01:44:20;;;;;;;;;;;23.30;56.70;;;;;;5024109;28;87103;-44
2022/07/16 01:46:45;;;;;;;;;;;23.30;56.60;;;;;;5024188;28;87905;-43
2022/07/16 01:49:11;;;;;;;;;;;23.30;56.60;;;;;;5024031;28;88148;-44
2022/07/16 01:51:36;;;;;;;;;;;23.30;56.60;;;;;;5024187;28;87486;-43
2022/07/16 01:54:02;;;;;;;;;;;23.30;56.60;;;;;;5026885;28;86981;-44
2022/07/16 01:56:27;;;;;;;;;;;23.30;56.60;;;;;;5024162;28;86894;-43
2022/07/16 01:58:53;;;;;;;;;;;23.20;56.50;;;;;;5024616;28;87481;-44
2022/07/16 02:01:18;;;;;;;;;;;23.20;56.50;;;;;;5023798;28;88195;-44
2022/07/16 02:03:44;;;;;;;;;;;23.20;56.60;;;;;;5024110;28;87222;-43
2022/07/16 02:06:09;;;;;;;;;;;23.20;56.60;;;;;;5022940;28;87862;-43
2022/07/16 02:08:35;;;;;;;;;;;23.20;56.70;;;;;;5023766;28;88086;-43
2022/07/16 02:11:00;;;;;;;;;;;23.20;56.70;;;;;;5023955;28;87114;-43
2022/07/16 02:13:26;;;;;;;;;;;23.10;56.60;;;;;;5023952;28;87382;-44
2022/07/16 02:15:51;;;;;;;;;;;23.10;56.60;;;;;;5026329;28;87239;-43
2022/07/16 02:18:17;;;;;;;;;;;23.10;56.60;;;;;;5023831;28;87457;-44
2022/07/16 02:20:42;;;;;;;;;;;23.10;56.60;;;;;;5023588;28;87796;-44
2022/07/16 02:23:08;;;;;;;;;;;23.10;56.60;;;;;;5024249;28;86288;-44
2022/07/16 02:25:33;;;;;;;;;;;23.10;56.60;;;;;;5023637;28;87503;-44
2022/07/16 02:28:08;;;;;;;;;;;23.10;56.60;;;;;;5023365;28;88181;-43
2022/07/16 02:30:34;;;;;;;;;;;23.10;56.60;;;;;;5022794;28;87957;-44
2022/07/16 02:32:59;;;;;;;;;;;23.00;56.60;;;;;;5023434;28;88432;-44
2022/07/16 02:35:25;;;;;;;;;;;23.00;56.60;;;;;;5023095;28;88888;-43
2022/07/16 02:37:51;;;;;;;;;;;23.00;56.60;;;;;;5026310;28;87149;-44
2022/07/16 02:40:16;;;;;;;;;;;23.00;56.70;;;;;;5023007;28;88439;-43
2022/07/16 02:42:42;;;;;;;;;;;23.00;56.70;;;;;;5023185;28;87101;-44
2022/07/16 02:45:08;;;;;;;;;;;22.90;56.60;;;;;;5022600;28;88779;-43
2022/07/16 02:47:34;;;;;;;;;;;22.90;56.60;;;;;;5023658;28;88684;-43
2022/07/16 02:50:00;;;;;;;;;;;22.90;56.60;;;;;;5023278;28;87081;-44
2022/07/16 02:52:25;;;;;;;;;;;22.90;56.60;;;;;;5023284;28;87034;-44
2022/07/16 02:54:51;;;;;;;;;;;22.90;56.60;;;;;;5022190;28;87907;-44
2022/07/16 02:57:16;;;;;;;;;;;22.90;56.70;;;;;;5023095;28;87053;-43
2022/07/16 02:59:42;;;;;;;;;;;22.90;56.60;;;;;;5025654;28;87793;-43
2022/07/16 03:02:07;;;;;;;;;;;22.90;56.60;;;;;;5023132;28;86935;-44
2022/07/16 03:04:33;;;;;;;;;;;22.80;56.60;;;;;;5021636;28;90600;-43
2022/07/16 03:06:58;;;;;;;;;;;22.80;56.60;;;;;;5022546;28;87382;-43
2022/07/16 03:09:24;;;;;;;;;;;22.80;56.70;;;;;;5022858;28;87118;-44
2022/07/16 03:11:49;;;;;;;;;;;22.80;56.70;;;;;;5023461;28;87530;-44
2022/07/16 03:14:15;;;;;;;;;;;22.80;56.70;;;;;;5022620;28;88143;-43
2022/07/16 03:16:40;;;;;;;;;;;22.80;56.60;;;;;;5023022;28;87461;-44
2022/07/16 03:19:05;;;;;;;;;;;22.80;56.60;;;;;;5021305;28;88016;-44
2022/07/16 03:21:31;;;;;;;;;;;22.70;56.60;;;;;;5025514;28;87559;-44
2022/07/16 03:23:57;;;;;;;;;;;22.70;56.50;;;;;;5023038;28;87420;-44
2022/07/16 03:26:22;;;;;;;;;;;22.70;56.50;;;;;;5022193;28;89595;-44
2022/07/16 03:28:48;;;;;;;;;;;22.70;56.70;;;;;;5022700;28;87521;-44
2022/07/16 03:31:15;;;;;;;;;;;22.70;56.60;;;;;;5022986;28;87405;-44
2022/07/16 03:33:40;;;;;;;;;;;22.70;56.60;;;;;;5022034;28;87988;-44
2022/07/16 03:36:06;;;;;;;;;;;22.70;56.60;;;;;;5023094;28;86280;-43
2022/07/16 03:41:15;;;;;;;;;;;22.60;56.50;;;;;;5022210;28;87368;-43
2022/07/16 03:43:41;;;;;;;;;;;22.60;56.60;;;;;;5024736;28;87929;-44
2022/07/16 03:46:12;;;;;;;;;;;22.60;56.60;;;;;;5021584;28;88460;-43
2022/07/16 03:48:39;;;;;;;;;;;22.60;56.60;;;;;;5022105;28;88319;-44
2022/07/16 03:51:06;;;;;;;;;;;22.50;56.60;;;;;;5022558;28;87038;-44
2022/07/16 03:53:32;;;;;;;;;;;22.50;56.60;;;;;;5022044;28;88236;-44
2022/07/16 03:55:58;;;;;;;;;;;22.50;56.50;;;;;;5022570;28;86978;-43
2022/07/16 03:58:23;;;;;;;;;;;22.50;56.60;;;;;;5022311;28;87546;-44
2022/07/16 04:00:49;;;;;;;;;;;22.50;56.60;;;;;;5022510;28;87363;-43
2022/07/16 04:03:14;;;;;;;;;;;22.50;56.60;;;;;;5024978;28;86918;-43
2022/07/16 04:05:40;;;;;;;;;;;22.50;56.70;;;;;;5021902;28;88603;-45
2022/07/16 04:08:05;;;;;;;;;;;22.40;56.60;;;;;;5021780;28;87954;-44
2022/07/16 04:10:30;;;;;;;;;;;22.40;56.70;;;;;;5022230;28;87641;-44
2022/07/16 04:12:56;;;;;;;;;;;22.40;56.60;;;;;;5022032;28;88007;-45
2022/07/16 04:15:21;;;;;;;;;;;22.40;56.60;;;;;;5022020;28;86908;-44
2022/07/16 04:17:47;;;;;;;;;;;22.40;56.60;;;;;;5022216;28;87494;-43
2022/07/16 04:20:12;;;;;;;;;;;22.40;56.70;;;;;;5021385;28;88675;-44
2022/07/16 04:22:38;;;;;;;;;;;22.40;56.70;;;;;;5022113;28;87756;-44
2022/07/16 04:25:04;;;;;;;;;;;22.30;56.60;;;;;;5025028;28;87416;-44
2022/07/16 04:27:29;;;;;;;;;;;22.30;56.70;;;;;;5021616;28;87109;-44
2022/07/16 04:29:55;;;;;;;;;;;22.30;57.30;;;;;;5023301;28;87438;-43
2022/07/16 04:35:05;;;;;;;;;;;22.30;56.70;;;;;;5025639;28;87262;-43
2022/07/16 04:37:30;;;;;;;;;;;22.30;56.80;;;;;;5025196;28;89069;-44
2022/07/16 04:39:56;;;;;;;;;;;22.30;56.80;;;;;;5025070;28;89446;-44
2022/07/16 04:42:21;;;;;;;;;;;22.30;56.80;;;;;;5025170;28;87160;-44
2022/07/16 04:44:47;;;;;;;;;;;22.30;56.80;;;;;;5025064;28;87508;-44
2022/07/16 04:47:12;;;;;;;;;;;22.30;56.90;;;;;;5027705;28;88260;-44
2022/07/16 04:49:38;;;;;;;;;;;22.20;56.90;;;;;;5025723;28;86320;-44
2022/07/16 04:52:04;;;;;;;;;;;22.20;56.90;;;;;;5025001;28;88067;-43
2022/07/16 04:54:29;;;;;;;;;;;22.20;56.90;;;;;;5025061;28;87055;-43
2022/07/16 04:56:55;;;;;;;;;;;22.20;56.90;;;;;;5024618;28;87936;-44
2022/07/16 04:59:20;;;;;;;;;;;22.20;56.90;;;;;;5024909;28;88083;-44
2022/07/16 05:01:46;;;;;;;;;;;22.20;57.00;;;;;;5024926;28;87127;-43
2022/07/16 05:04:11;;;;;;;;;;;22.20;57.00;;;;;;5024915;28;87447;-43
2022/07/16 05:06:37;;;;;;;;;;;22.20;57.10;;;;;;5024528;28;88149;-43
2022/07/16 05:09:02;;;;;;;;;;;22.10;57.00;;;;;;5027525;28;87067;-43
2022/07/16 05:11:28;;;;;;;;;;;22.10;57.00;;;;;;5024315;28;87956;-43
2022/07/16 05:13:54;;;;;;;;;;;22.10;57.00;;;;;;5025223;28;86366;-44
2022/07/16 05:16:20;;;;;;;;;;;22.10;57.00;;;;;;5024941;28;87062;-43
2022/07/16 05:18:45;;;;;;;;;;;22.10;57.00;;;;;;5023968;28;89539;-44
2022/07/16 05:21:11;;;;;;;;;;;22.10;57.20;;;;;;5024095;28;88057;-43
2022/07/16 05:23:36;;;;;;;;;;;22.10;57.20;;;;;;5024722;28;88352;-44
2022/07/16 05:26:02;;;;;;;;;;;22.10;57.30;;;;;;5024306;28;88236;-44
2022/07/16 05:28:28;;;;;;;;;;;22.10;57.20;;;;;;5024635;28;87084;-43
2022/07/16 05:30:53;;;;;;;;;;;22.10;57.30;;;;;;5027254;28;87252;-44
2022/07/16 05:33:19;;;;;;;;;;;22.10;57.30;;;;;;5024008;28;87206;-43
2022/07/16 05:35:44;;;;;;;;;;;22.10;57.40;;;;;;5023298;28;88867;-44
2022/07/16 05:38:10;;;;;;;;;;;22.10;57.40;;;;;;5023363;28;87392;-44
2022/07/16 05:40:36;;;;;;;;;;;22.10;57.40;;;;;;5023230;28;87262;-43
2022/07/16 05:43:01;;;;;;;;;;;22.10;57.50;;;;;;5023321;28;87216;-43
2022/07/16 05:45:27;;;;;;;;;;;22.10;57.40;;;;;;5022309;28;88996;-44
2022/07/16 05:47:52;;;;;;;;;;;22.20;57.50;;;;;;5023471;28;87157;-46
2022/07/16 05:50:18;;;;;;;;;;;22.20;57.50;;;;;;5023336;28;87186;-44
2022/07/16 05:52:43;;;;;;;;;;;22.20;57.50;;;;;;5026488;28;88076;-44
2022/07/16 05:55:09;;;;;;;;;;;22.20;57.60;;;;;;5024346;28;88018;-43
2022/07/16 05:57:35;;;;;;;;;;;22.10;57.60;;;;;;5023500;28;89435;-45
2022/07/16 06:00:00;;;;;;;;;;;22.20;57.60;;;;;;5024107;28;87146;-42
2022/07/16 06:02:26;;;;;;;;;;;22.20;57.70;;;;;;5024487;28;86633;-43
2022/07/16 06:04:51;;;;;;;;;;;22.20;57.70;;;;;;5023601;28;88777;-45
2022/07/16 06:07:17;;;;;;;;;;;22.20;57.70;;;;;;5024149;28;87020;-43
2022/07/16 06:09:43;;;;;;;;;;;22.20;57.80;;;;;;5023480;28;87783;-43
2022/07/16 06:12:08;;;;;;;;;;;22.20;58.40;;;;;;5026457;28;89422;-43
2022/07/16 06:14:33;;;;;;;;;;;22.20;57.80;;;;;;5024055;28;87285;-43
2022/07/16 06:16:59;;;;;;;;;;;22.20;57.80;;;;;;5023604;28;87896;-44
2022/07/16 06:19:24;;;;;;;;;;;22.20;57.90;;;;;;5023682;28;87198;-43
2022/07/16 06:21:50;;;;;;;;;;;22.20;57.90;;;;;;5023905;28;87507;-44
2022/07/16 06:24:15;;;;;;;;;;;22.20;57.90;;;;;;5023442;28;88165;-44
2022/07/16 06:26:46;;;;;;;;;;;22.20;58.00;;;;;;5024308;28;86483;-44
2022/07/16 06:29:13;;;;;;;;;;;22.20;58.10;;;;;;5023609;28;87072;-43
2022/07/16 06:31:39;;;;;;;;;;;22.20;58.00;;;;;;5023135;28;89209;-44
2022/07/16 06:34:04;;;;;;;;;;;22.20;58.00;;;;;;5026152;28;87943;-46
2022/07/16 06:36:30;;;;;;;;;;;22.20;58.00;;;;;;5023224;28;88066;-44
2022/07/16 06:38:55;;;;;;;;;;;22.20;58.10;;;;;;5023649;28;87051;-45
2022/07/16 06:41:21;;;;;;;;;;;22.20;58.10;;;;;;5023426;28;87805;-43
2022/07/16 06:43:46;;;;;;;;;;;22.20;58.20;;;;;;5023251;28;87169;-43
2022/07/16 06:46:12;;;;;;;;;;;22.20;58.20;;;;;;5022876;28;87198;-44
2022/07/16 06:48:37;;;;;;;;;;;22.20;58.30;;;;;;5023118;28;88228;-45
2022/07/16 06:51:03;;;;;;;;;;;22.20;58.30;;;;;;5023513;28;87566;-43
2022/07/16 06:53:28;;;;;;;;;;;22.20;58.20;;;;;;5022332;28;87131;-43
2022/07/16 06:55:54;;;;;;;;;;;22.20;58.20;;;;;;5025913;28;87401;-44
2022/07/16 06:58:19;;;;;;;;;;;22.20;58.20;;;;;;5022599;28;87868;-43
2022/07/16 07:00:45;;;;;;;;;;;22.20;58.20;;;;;;5023149;28;88590;-42
2022/07/16 07:03:11;;;;;;;;;;;22.20;58.20;;;;;;5022599;28;88910;-43
2022/07/16 07:05:37;;;;;;;;;;;22.20;58.20;;;;;;5023116;28;86899;-43
2022/07/16 07:08:03;;;;;;;;;;;22.20;58.30;;;;;;5023158;28;88027;-43
2022/07/16 07:10:29;;;;;;;;;;;22.20;58.40;;;;;;5022899;28;88380;-43
2022/07/16 07:12:54;;;;;;;;;;;22.30;58.30;;;;;;5022965;28;86984;-44
2022/07/16 07:15:20;;;;;;;;;;;22.20;58.40;;;;;;5023381;28;87543;-43
2022/07/16 07:17:45;;;;;;;;;;;22.30;58.50;;;;;;5025396;28;88195;-44
2022/07/16 07:20:11;;;;;;;;;;;22.30;58.40;;;;;;5022534;28;88785;-43
2022/07/16 07:22:36;;;;;;;;;;;22.20;58.40;;;;;;5021782;28;88937;-43
2022/07/16 07:25:02;;;;;;;;;;;22.30;58.40;;;;;;5022668;28;87273;-44
2022/07/16 07:27:28;;;;;;;;;;;22.30;58.50;;;;;;5022752;28;87893;-44
2022/07/16 07:29:53;;;;;;;;;;;22.20;58.60;;;;;;5022390;28;88045;-44
2022/07/16 07:32:19;;;;;;;;;;;22.30;58.50;;;;;;5022578;28;87140;-44
2022/07/16 07:34:44;;;;;;;;;;;22.30;58.50;;;;;;5022727;28;87001;-44
2022/07/16 07:37:10;;;;;;;;;;;22.30;58.50;;;;;;5022297;28;88039;-44
2022/07/16 07:39:36;;;;;;;;;;;22.30;58.50;;;;;;5025882;28;86483;-43
2022/07/16 07:42:01;;;;;;;;;;;22.30;58.50;;;;;;5022081;28;88050;-43
2022/07/16 07:44:27;;;;;;;;;;;22.30;58.60;;;;;;5022639;28;87150;-44
2022/07/16 07:46:52;;;;;;;;;;;22.30;58.40;;;;;;5021561;28;89039;-43
2022/07/16 07:49:18;;;;;;;;;;;22.30;58.60;;;;;;5022068;28;86979;-43
2022/07/16 07:51:43;;;;;;;;;;;22.30;58.60;;;;;;5022492;28;87084;-43
2022/07/16 07:54:09;;;;;;;;;;;22.30;58.50;;;;;;5022773;28;87600;-43
2022/07/16 07:56:34;;;;;;;;;;;22.30;58.60;;;;;;5022048;28;88131;-42
2022/07/16 07:59:00;;;;;;;;;;;22.30;58.50;;;;;;5022519;28;87177;-44
2022/07/16 08:01:25;;;;;;;;;;;22.40;58.60;;;;;;5024924;28;87511;-44
2022/07/16 08:03:51;;;;;;;;;;;22.40;58.50;;;;;;5022413;28;86504;-44
2022/07/16 08:06:16;;;;;;;;;;;22.40;58.50;;;;;;5025575;28;87000;-43
2022/07/16 08:08:42;;;;;;;;;;;22.40;58.50;;;;;;5025755;28;87329;-43
2022/07/16 08:11:08;;;;;;;;;;;22.40;58.50;;;;;;5025160;28;88087;-43
2022/07/16 08:13:33;;;;;;;;;;;22.40;58.40;;;;;;5025489;28;89769;-43
2022/07/16 08:15:59;;;;;;;;;;;22.40;58.40;;;;;;5025498;28;88435;-43
2022/07/16 08:18:24;;;;;;;;;;;22.40;58.50;;;;;;5025315;28;87104;-45
2022/07/16 08:20:50;;;;;;;;;;;22.40;58.40;;;;;;5028290;28;87054;-42
2022/07/16 08:25:44;;;;;;;;;;;22.40;58.40;;;;;;5025803;28;87146;-43
2022/07/16 08:26:00;;;;;;;;;;;22.40;58.40;;;;;;5025716;28;87056;-44
2022/07/16 08:28:26;;;;;;;;;;;22.40;58.40;;;;;;5025800;28;87256;-44
2022/07/16 08:30:51;;;;;;;;;;;22.40;58.40;;;;;;5025455;28;86969;-43
2022/07/16 08:33:17;;;;;;;;;;;22.50;58.40;;;;;;5025305;28;88991;-43
2022/07/16 08:35:44;;;;;;;;;;;22.50;58.40;;;;;;5024584;28;89041;-44
2022/07/16 08:38:09;;;;;;;;;;;22.50;58.50;;;;;;5025184;28;87388;-43
2022/07/16 08:40:37;;;;;;;;;;;22.50;58.50;;;;;;5025600;28;87487;-43
2022/07/16 08:43:02;;;;;;;;;;;22.50;58.40;;;;;;5027830;28;87385;-43
2022/07/16 08:45:29;;;;;;;;;;;22.50;58.40;;;;;;5024355;28;89062;-44
2022/07/16 08:47:55;;;;;;;;;;;22.50;58.40;;;;;;5024910;28;87532;-44
2022/07/16 08:50:20;;;;;;;;;;;22.50;58.40;;;;;;5025278;28;87059;-44
2022/07/16 08:52:48;;;;;;;;;;;22.60;58.40;;;;;;5025777;28;87324;-43
2022/07/16 08:55:14;;;;;;;;;;;22.60;58.40;;;;;;5024851;28;88188;-43
2022/07/16 08:57:40;;;;;;;;;;;22.60;58.30;;;;;;5025137;28;87158;-43
2022/07/16 09:00:08;;;;;;;;;;;22.60;58.40;;;;;;5024224;28;88774;-43
2022/07/16 09:02:34;;;;;;;;;;;22.70;59.40;;;;;;5024670;28;88645;-43
2022/07/16 09:05:00;;;;;;;;;;;22.70;58.50;;;;;;5027812;28;87083;-42
2022/07/16 09:07:26;;;;;;;;;;;22.60;58.30;;;;;;5024517;28;89270;-43
2022/07/16 09:09:51;;;;;;;;;;;22.70;58.50;;;;;;5025101;28;87103;-43
2022/07/16 09:12:32;;;;;;;;;;;22.70;58.40;;;;;;5023471;28;89147;-43
2022/07/16 09:14:58;;;;;;;;;;;22.70;58.50;;;;;;5023997;28;89628;-42
2022/07/16 09:17:23;;;;;;;;;;;22.80;58.60;;;;;;5024266;28;86299;-43
2022/07/16 09:19:49;;;;;;;;;;;22.70;58.50;;;;;;5025210;28;87408;-44
2022/07/16 09:22:15;;;;;;;;;;;22.80;58.70;;;;;;5024424;28;88235;-44
2022/07/16 09:24:47;;;;;;;;;;;22.80;58.70;;;;;;5023820;28;88056;-43
2022/07/16 09:27:21;;;;;;;;;;;22.80;58.60;;;;;;5027432;28;88424;-43
2022/07/16 09:29:50;;;;;;;;;;;22.80;59.10;;;;;;5024517;28;87196;-41
2022/07/16 09:32:36;;;;;;;;;;;22.80;59.60;;;;;;5024651;28;87436;-43
2022/07/16 09:35:13;;;;;;;;;;;22.80;59.30;;;;;;5023984;28;87141;-43
2022/07/16 09:37:59;;;;;;;;;;;22.80;59.40;;;;;;5024607;28;87096;-43
2022/07/16 09:40:30;;;;;;;;;;;22.90;58.70;;;;;;5024382;28;87434;-43
2022/07/16 09:42:56;;;;;;;;;;;22.90;59.20;;;;;;5024049;28;88550;-43
2022/07/16 09:45:22;;;;;;;;;;;22.90;59.30;;;;;;5023931;28;87150;-44
2022/07/16 09:47:48;;;;;;;;;;;23.00;59.60;;;;;;5024487;28;87390;-43
2022/07/16 09:50:14;;;;;;;;;;;22.90;59.30;;;;;;5026381;28;89243;-43
2022/07/16 09:52:39;;;;;;;;;;;23.00;58.90;;;;;;5024323;28;88198;-43
2022/07/16 09:55:06;;;;;;;;;;;23.00;58.80;;;;;;5023563;28;89848;-43
2022/07/16 09:57:32;;;;;;;;;;;23.00;59.00;;;;;;5023908;28;87078;-42
2022/07/16 09:59:58;;;;;;;;;;;23.00;59.20;;;;;;5024158;28;87514;-42
2022/07/16 10:02:23;;;;;;;;;;;23.10;59.40;;;;;;5023827;28;87208;-43
2022/07/16 10:04:49;;;;;;;;;;;23.10;59.70;;;;;;5024046;28;87234;-43
2022/07/16 10:07:16;;;;;;;;;;;23.10;59.40;;;;;;5024168;28;87969;-43
2022/07/16 10:09:42;;;;;;;;;;;23.10;59.90;;;;;;5023539;28;89668;-43
2022/07/16 10:12:11;;;;;;;;;;;23.20;59.60;;;;;;5026906;28;87042;-43
2022/07/16 10:14:38;;;;;;;;;;;23.20;59.20;;;;;;5022812;28;89528;-42
2022/07/16 10:17:14;;;;;;;;;;;23.20;59.10;;;;;;5023822;28;87018;-44
2022/07/16 10:19:40;;;;;;;;;;;23.20;59.00;;;;;;5023452;28;89072;-44
2022/07/16 10:22:17;;;;;;;;;;;23.20;59.00;;;;;;5023523;28;87964;-43
2022/07/16 10:24:46;;;;;;;;;;;23.30;59.00;;;;;;5024030;28;87023;-43
2022/07/16 10:27:24;;;;;;;;;;;23.30;59.20;;;;;;5023699;28;87450;-43
2022/07/16 10:29:49;;;;;;;;;;;23.30;59.10;;;;;;5023313;28;88048;-43
2022/07/16 10:32:27;;;;;;;;;;;23.30;59.50;;;;;;5026680;28;86894;-43
2022/07/16 10:34:54;;;;;;;;;;;23.30;59.40;;;;;;5023532;28;86952;-43
2022/07/16 10:37:27;;;;;;;;;;;23.30;59.40;;;;;;5023658;28;87217;-43
2022/07/16 10:40:12;;;;;;;;;;;23.40;59.40;;;;;;5022599;28;88989;-44
2022/07/16 10:42:38;;;;;;;;;;;23.40;59.50;;;;;;5022604;28;89406;-43
2022/07/16 10:45:04;;;;;;;;;;;23.40;59.20;;;;;;5023021;28;87116;-41
2022/07/16 10:47:41;;;;;;;;;;;23.40;59.20;;;;;;5023586;28;87246;-42
2022/07/16 10:50:18;;;;;;;;;;;23.50;59.40;;;;;;5022725;28;88631;-43
2022/07/16 10:52:45;;;;;;;;;;;23.50;59.30;;;;;;5023339;28;86937;-43
2022/07/16 10:55:10;;;;;;;;;;;23.50;59.50;;;;;;5025703;28;87314;-43
2022/07/16 10:57:37;;;;;;;;;;;23.50;59.60;;;;;;5023780;28;86365;-44
2022/07/16 11:00:05;;;;;;;;;;;23.50;59.60;;;;;;5022959;28;87496;-43
2022/07/16 11:02:36;;;;;;;;;;;23.50;59.30;;;;;;5022905;28;87964;-43
2022/07/16 11:05:02;;;;;;;;;;;23.60;59.20;;;;;;5022633;28;87995;-43
2022/07/16 11:07:32;;;;;;;;;;;23.60;59.00;;;;;;5023206;28;88346;-42
2022/07/16 11:09:58;;;;;;;;;;;23.70;59.00;;;;;;5022498;28;88187;-43
2022/07/16 11:12:25;;;;;;;;;;;23.70;59.20;;;;;;5022858;28;87091;-44
2022/07/16 11:14:55;;;;;;;;;;;23.70;59.10;;;;;;5023115;28;87303;-45
2022/07/16 11:17:22;;;;;;;;;;;23.70;59.00;;;;;;5025507;28;89528;-43
2022/07/16 11:19:49;;;;;;;;;;;23.80;59.10;;;;;;5022658;28;89021;-42
2022/07/16 11:22:20;;;;;;;;;;;23.80;59.30;;;;;;5022923;28;87310;-43
2022/07/16 11:24:52;;;;;;;;;;;23.80;59.20;;;;;;5022912;28;86905;-43
2022/07/16 11:27:18;;;;;;;;;;;23.90;59.00;;;;;;5022768;28;89066;-43
2022/07/16 11:29:44;;;;;;;;;;;23.80;58.90;;;;;;5021927;28;89109;-43
2022/07/16 11:32:15;;;;;;;;;;;23.90;59.00;;;;;;5023022;28;87048;-43
2022/07/16 11:34:41;;;;;;;;;;;23.90;58.80;;;;;;5022540;28;88798;-42
2022/07/16 11:37:07;;;;;;;;;;;23.90;59.00;;;;;;5022130;28;88040;-43
2022/07/16 11:39:33;;;;;;;;;;;23.90;59.10;;;;;;5024491;28;87189;-42
2022/07/16 11:41:58;;;;;;;;;;;23.90;58.80;;;;;;5022206;28;87722;-42
2022/07/16 11:44:26;;;;;;;;;;;24.00;59.00;;;;;;5022297;28;87185;-44
2022/07/16 11:46:53;;;;;;;;;;;24.00;58.90;;;;;;5022634;28;87391;-42
2022/07/16 11:49:23;;;;;;;;;;;24.00;58.80;;;;;;5022223;28;88092;-43
2022/07/16 11:51:49;;;;;;;;;;;24.10;58.80;;;;;;5022368;28;87110;-43
2022/07/16 11:54:15;;;;;;;;;;;24.10;58.70;;;;;;5022009;28;88092;-43
2022/07/16 11:56:41;;;;;;;;;;;24.10;58.80;;;;;;5021826;28;89658;-44
2022/07/16 11:59:16;;;;;;;;;;;24.10;58.80;;;;;;5022223;28;86972;-42
2022/07/16 12:01:42;;;;;;;;;;;24.20;58.80;;;;;;5024699;28;88595;-42
2022/07/16 12:04:08;;;;;;;;;;;24.20;58.60;;;;;;5022441;28;87122;-43
2022/07/16 12:06:34;;;;;;;;;;;24.20;58.60;;;;;;5022292;28;87250;-42
2022/07/16 12:08:59;;;;;;;;;;;24.20;59.20;;;;;;5022080;28;88019;-42
2022/07/16 12:11:32;;;;;;;;;;;24.20;58.70;;;;;;5022811;28;86381;-42
2022/07/16 12:13:57;;;;;;;;;;;24.30;58.70;;;;;;5022223;28;87003;-42
2022/07/16 12:16:23;;;;;;;;;;;24.30;58.60;;;;;;5021865;28;87016;-43
2022/07/16 12:19:03;;;;;;;;;;;24.30;58.50;;;;;;5021462;28;87997;-42
2022/07/16 12:21:37;;;;;;;;;;;24.30;58.40;;;;;;5024757;28;87461;-43
2022/07/16 12:24:03;;;;;;;;;;;24.30;58.30;;;;;;5021820;28;87174;-43
2022/07/16 12:26:39;;;;;;;;;;;24.30;58.40;;;;;;5022166;28;87334;-42
2022/07/16 12:29:06;;;;;;;;;;;24.40;58.50;;;;;;5021666;28;87993;-42
2022/07/16 12:31:33;;;;;;;;;;;24.40;58.40;;;;;;5021670;28;87142;-44
2022/07/16 12:34:02;;;;;;;;;;;24.40;58.30;;;;;;5021943;28;89293;-43
2022/07/16 12:36:32;;;;;;;;;;;24.50;58.40;;;;;;5021930;28;87279;-42
2022/07/16 12:39:04;;;;;;;;;;;24.50;58.30;;;;;;5021509;28;86917;-43
2022/07/16 12:41:34;;;;;;;;;;;24.50;58.30;;;;;;5021860;28;88844;-42
2022/07/16 12:44:04;;;;;;;;;;;24.50;58.30;;;;;;5022993;28;90495;-42
2022/07/16 12:46:33;;;;;;;;;;;24.60;58.20;;;;;;5021592;28;88271;-43
2022/07/16 12:49:00;;;;;;;;;;;24.60;58.10;;;;;;5021415;28;87978;-42
2022/07/16 12:51:36;;;;;;;;;;;24.60;58.20;;;;;;5023612;28;87094;-42
2022/07/16 12:54:02;;;;;;;;;;;24.60;58.00;;;;;;5025439;28;87496;-42
2022/07/16 12:59:14;;;;;;;;;;;24.70;57.90;;;;;;5025104;28;87068;-42
2022/07/16 13:01:40;;;;;;;;;;;24.70;57.70;;;;;;5025535;28;88824;-42
2022/07/16 13:04:06;;;;;;;;;;;24.70;57.80;;;;;;5024373;28;89587;-42
2022/07/16 13:06:31;;;;;;;;;;;24.80;57.90;;;;;;5027933;28;87142;-42
2022/07/16 13:08:57;;;;;;;;;;;24.80;57.80;;;;;;5023845;28;88972;-42
2022/07/16 13:11:23;;;;;;;;;;;24.80;57.60;;;;;;5025160;28;87140;-42
2022/07/16 13:13:49;;;;;;;;;;;24.80;57.60;;;;;;5025086;28;87651;-42
2022/07/16 13:16:17;;;;;;;;;;;24.90;57.40;;;;;;5024550;28;87937;-42
2022/07/16 13:18:43;;;;;;;;;;;24.90;57.60;;;;;;5024625;28;87141;-42
2022/07/16 13:21:08;;;;;;;;;;;24.90;57.70;;;;;;5024655;28;87455;-42
2022/07/16 13:23:35;;;;;;;;;;;24.90;57.40;;;;;;5024482;28;87269;-42
2022/07/16 13:26:01;;;;;;;;;;;25.00;57.40;;;;;;5024931;28;86566;-42
2022/07/16 13:28:27;;;;;;;;;;;25.00;57.20;;;;;;5027343;28;87354;-41
2022/07/16 13:30:52;;;;;;;;;;;25.00;57.30;;;;;;5024805;28;87020;-42
2022/07/16 13:33:18;;;;;;;;;;;25.00;57.30;;;;;;5023858;28;87912;-42
2022/07/16 13:35:44;;;;;;;;;;;25.10;57.30;;;;;;5024326;28;87375;-42
2022/07/16 13:38:09;;;;;;;;;;;25.10;57.40;;;;;;5024398;28;87093;-43
2022/07/16 13:40:35;;;;;;;;;;;25.10;57.20;;;;;;5024180;28;88852;-42
2022/07/16 13:43:01;;;;;;;;;;;25.10;57.30;;;;;;5024134;28;88125;-42
2022/07/16 13:45:27;;;;;;;;;;;25.20;57.40;;;;;;5023959;28;87133;-43
2022/07/16 13:47:53;;;;;;;;;;;25.20;57.20;;;;;;5024673;28;87662;-41
2022/07/16 13:50:19;;;;;;;;;;;25.20;57.00;;;;;;5027370;28;87377;-42
2022/07/16 13:52:45;;;;;;;;;;;25.20;57.00;;;;;;5024378;28;86963;-42
2022/07/16 13:55:10;;;;;;;;;;;25.20;57.00;;;;;;5023820;28;88404;-42
2022/07/16 14:00:21;;;;;;;;;;;25.30;56.80;;;;;;5024212;28;87652;-43
2022/07/16 14:02:47;;;;;;;;;;;25.40;56.90;;;;;;5023262;28;87928;-42
2022/07/16 14:05:12;;;;;;;;;;;25.40;56.60;;;;;;5024078;28;87172;-42
2022/07/16 14:07:38;;;;;;;;;;;25.40;56.60;;;;;;5024047;28;87471;-42
2022/07/16 14:10:04;;;;;;;;;;;25.40;56.60;;;;;;5023842;28;88148;-42
2022/07/16 14:12:30;;;;;;;;;;;25.40;56.60;;;;;;5026803;28;87036;-42
2022/07/16 14:14:55;;;;;;;;;;;25.50;56.60;;;;;;5024306;28;87317;-42
2022/07/16 14:17:21;;;;;;;;;;;25.50;56.50;;;;;;5024088;28;87199;-42
2022/07/16 14:19:46;;;;;;;;;;;25.50;56.40;;;;;;5023785;28;87505;-42
2022/07/16 14:22:12;;;;;;;;;;;25.60;56.50;;;;;;5022574;28;89049;-42
2022/07/16 14:24:38;;;;;;;;;;;25.60;56.50;;;;;;5023473;28;86995;-42